Time;durP1;ratioP1;P1;durP2;ratioP2;P2;SDS_P1;SDS_P2;PMS_P1;PMS_P2;Temp;Humidity;BMP_temperature;BMP_pressure;BME280_temperature;BME280_humidity;BME280_pressure;Samples;Min_cycle;Max_cycle;Signal;HPM_P1;HPM_P2
2022/01/14 00:01:38;;;;;;;85.10;46.28;;;5.90;99.90;;;;;;5069785;28;20460;-70
2022/01/14 00:04:04;;;;;;;98.65;46.45;;;5.90;99.90;;;;;;5068808;28;20402;-70
2022/01/14 00:06:30;;;;;;;106.50;46.75;;;5.90;99.90;;;;;;5067122;28;20505;-70
2022/01/14 00:09:04;;;;;;;89.38;48.20;;;5.90;99.90;;;;;;5067776;28;20105;-70
2022/01/14 00:11:31;;;;;;;88.72;45.05;;;5.90;99.90;;;;;;5069813;28;20045;-70
2022/01/14 00:14:20;;;;;;;93.20;46.65;;;5.90;99.90;;;;;;5068136;28;20064;-70
2022/01/14 00:16:47;;;;;;;86.40;45.50;;;6.00;99.90;;;;;;5068279;28;20051;-70
2022/01/14 00:19:13;;;;;;;100.55;45.83;;;6.00;99.90;;;;;;5069179;28;20048;-70
2022/01/14 00:21:41;;;;;;;90.28;40.78;;;6.00;99.90;;;;;;5067052;28;20044;-70
2022/01/14 00:24:23;;;;;;;78.70;41.50;;;6.00;99.90;;;;;;5066703;28;20037;-70
2022/01/14 00:32:33;;;;;;;96.43;43.28;;;6.10;99.90;;;;;;5067988;28;20463;-70
2022/01/14 00:34:59;;;;;;;86.72;44.10;;;6.00;99.90;;;;;;5069407;28;20051;-70
2022/01/14 00:37:25;;;;;;;84.88;41.03;;;6.00;99.90;;;;;;5069685;28;20040;-70
2022/01/14 00:39:50;;;;;;;81.50;39.85;;;6.10;99.90;;;;;;5069254;28;20171;-70
2022/01/14 00:42:16;;;;;;;73.68;37.95;;;6.10;99.90;;;;;;5077825;28;20051;-70
2022/01/14 00:44:42;;;;;;;83.35;37.30;;;6.10;99.90;;;;;;5068123;28;20110;-70
2022/01/14 00:47:07;;;;;;;60.53;34.65;;;6.10;99.90;;;;;;5066334;28;20048;-70
2022/01/14 00:49:33;;;;;;;59.03;33.75;;;6.10;99.90;;;;;;5067210;28;20401;-70
2022/01/14 00:51:59;;;;;;;63.10;34.08;;;6.00;99.90;;;;;;5068113;28;20093;-70
2022/01/14 00:54:25;;;;;;;71.35;36.22;;;6.00;99.90;;;;;;5069614;28;20041;-70
2022/01/14 00:59:35;;;;;;;61.85;32.72;;;6.00;99.90;;;;;;5061747;28;20056;-70
2022/01/14 01:02:02;;;;;;;67.88;35.40;;;6.00;99.90;;;;;;5066574;28;20051;-70
2022/01/14 01:04:32;;;;;;;63.38;33.80;;;6.00;99.90;;;;;;5067857;28;20036;-70
2022/01/14 01:07:00;;;;;;;65.65;35.67;;;6.00;99.90;;;;;;5068934;28;20064;-70
2022/01/14 01:09:26;;;;;;;70.15;37.17;;;6.00;99.90;;;;;;5055841;28;20041;-70
2022/01/14 01:14:56;;;;;;;62.53;33.55;;;6.00;99.90;;;;;;5058397;28;20387;-70
2022/01/14 01:17:22;;;;;;;67.40;37.03;;;5.90;99.90;;;;;;5082933;28;20037;-70
2022/01/14 01:19:47;;;;;;;66.72;35.50;;;6.00;99.90;;;;;;5066828;28;20051;-70
2022/01/14 01:22:13;;;;;;;75.63;37.90;;;5.90;99.90;;;;;;5068580;28;20041;-70
2022/01/14 01:24:39;;;;;;;78.05;36.63;;;5.90;99.90;;;;;;5059666;28;20482;-70
2022/01/14 01:27:08;;;;;;;70.55;37.10;;;5.90;99.90;;;;;;5058232;28;20393;-70
2022/01/14 01:32:04;;;;;;;77.15;37.67;;;6.00;99.90;;;;;;5058987;28;20064;-70
2022/01/14 01:34:30;;;;;;;67.47;37.70;;;6.00;99.90;;;;;;5054887;28;20044;-70
2022/01/14 01:36:57;;;;;;;59.72;34.15;;;5.90;99.90;;;;;;5061953;28;20050;-70
2022/01/14 01:39:29;;;;;;;67.38;35.58;;;6.00;99.90;;;;;;5064377;28;20052;-70
2022/01/14 01:42:08;;;;;;;68.13;36.75;;;6.00;99.90;;;;;;5065984;28;20048;-70
2022/01/14 01:44:38;;;;;;;73.90;36.67;;;5.90;99.90;;;;;;5066942;28;20067;-70
2022/01/14 01:47:05;;;;;;;70.50;37.72;;;5.90;99.90;;;;;;5062107;28;20086;-70
2022/01/14 01:49:33;;;;;;;72.65;36.08;;;6.00;99.90;;;;;;5065956;28;20463;-70
2022/01/14 01:51:59;;;;;;;70.53;37.53;;;6.00;99.90;;;;;;5059112;28;20098;-70
2022/01/14 01:54:28;;;;;;;79.75;37.15;;;6.00;99.90;;;;;;5067063;28;20413;-70
2022/01/14 01:56:54;;;;;;;83.97;38.45;;;6.00;99.90;;;;;;5068514;28;20183;-70
2022/01/14 01:59:22;;;;;;;71.07;37.53;;;5.90;99.90;;;;;;5068337;28;20052;-70
2022/01/14 02:01:49;;;;;;;80.18;39.15;;;5.90;99.90;;;;;;5066935;28;20100;-70
2022/01/14 02:04:14;;;;;;;76.20;38.38;;;5.90;99.90;;;;;;5066638;28;20045;-70
2022/01/14 02:06:41;;;;;;;74.03;37.00;;;5.90;99.90;;;;;;5065079;28;20063;-70
2022/01/14 02:09:07;;;;;;;71.13;38.08;;;5.80;99.90;;;;;;5066956;28;20052;-70
2022/01/14 02:11:33;;;;;;;65.60;36.50;;;5.80;99.90;;;;;;5067693;28;20055;-70
2022/01/14 02:14:01;;;;;;;84.28;38.05;;;5.80;99.90;;;;;;5066772;28;20041;-70
2022/01/14 02:16:58;;;;;;;91.88;37.78;;;5.80;99.90;;;;;;5066866;28;20143;-70
2022/01/14 02:19:28;;;;;;;74.53;37.63;;;5.70;99.90;;;;;;5050514;28;20063;-70
2022/01/14 02:22:13;;;;;;;78.47;40.58;;;5.70;99.90;;;;;;5066587;28;20490;-70
2022/01/14 02:27:08;;;;;;;78.95;37.95;;;5.80;99.90;;;;;;5065141;28;20118;-70
2022/01/14 02:29:35;;;;;;;83.75;37.35;;;5.80;99.90;;;;;;5067897;28;20052;-70
2022/01/14 02:32:01;;;;;;;83.25;40.67;;;5.80;99.90;;;;;;5068419;28;20053;-70
2022/01/14 02:34:27;;;;;;;77.18;39.15;;;5.90;99.90;;;;;;5065694;28;20051;-70
2022/01/14 02:36:53;;;;;;;82.93;38.55;;;5.90;99.90;;;;;;5068002;28;20048;-70
2022/01/14 02:39:20;;;;;;;73.30;37.45;;;5.90;99.90;;;;;;5066313;28;20059;-70
2022/01/14 02:41:49;;;;;;;67.32;35.25;;;5.90;99.90;;;;;;5068427;28;20052;-70
2022/01/14 02:44:24;;;;;;;73.65;35.78;;;5.90;99.90;;;;;;5065262;28;20059;-70
2022/01/14 02:46:58;;;;;;;79.82;36.17;;;5.90;99.90;;;;;;5068031;28;20047;-70
2022/01/14 02:49:28;;;;;;;75.35;38.05;;;5.90;99.90;;;;;;5066143;28;20618;-70
2022/01/14 02:51:55;;;;;;;65.00;36.92;;;5.90;99.90;;;;;;5068703;28;20431;-70
2022/01/14 02:54:23;;;;;;;67.05;35.25;;;5.90;99.90;;;;;;5067648;28;20049;-70
2022/01/14 02:56:52;;;;;;;71.85;34.80;;;6.00;99.90;;;;;;5066444;28;20143;-70
2022/01/14 02:59:21;;;;;;;63.40;35.13;;;5.90;99.90;;;;;;5068015;28;20112;-70
2022/01/14 03:01:49;;;;;;;76.53;36.58;;;6.00;99.90;;;;;;5070716;28;20040;-70
2022/01/14 03:04:16;;;;;;;67.60;37.35;;;5.90;99.90;;;;;;5070464;28;20072;-70
2022/01/14 03:06:43;;;;;;;71.82;37.10;;;6.00;99.90;;;;;;5069719;28;20048;-70
2022/01/14 03:09:10;;;;;;;68.80;36.30;;;6.00;99.90;;;;;;5078634;28;20123;-70
2022/01/14 03:11:39;;;;;;;85.60;39.25;;;6.00;99.90;;;;;;5078663;28;20431;-70
2022/01/14 03:14:06;;;;;;;73.75;39.58;;;6.00;99.90;;;;;;5071676;28;20044;-70
2022/01/14 03:16:38;;;;;;;77.05;38.22;;;6.00;99.90;;;;;;5071250;28;20044;-70
2022/01/14 03:19:14;;;;;;;75.95;40.45;;;6.00;99.90;;;;;;5069997;28;20047;-70
2022/01/14 03:21:41;;;;;;;85.95;43.08;;;6.10;99.90;;;;;;5058196;28;20404;-70
2022/01/14 03:25:47;;;;;;;81.80;42.80;;;6.00;99.90;;;;;;5080791;28;20115;-70
2022/01/14 03:27:10;;;;;;;81.38;42.83;;;6.00;99.90;;;;;;5069157;28;20055;-70
2022/01/14 03:29:36;;;;;;;84.88;44.50;;;6.00;99.90;;;;;;5069764;28;20398;-70
2022/01/14 03:32:03;;;;;;;85.88;43.97;;;6.10;99.90;;;;;;5071176;28;20041;-70
2022/01/14 03:34:30;;;;;;;79.13;41.97;;;6.00;99.90;;;;;;5077023;28;20464;-70
2022/01/14 03:36:56;;;;;;;80.65;41.05;;;6.10;99.90;;;;;;5070020;28;20086;-70
2022/01/14 03:39:22;;;;;;;77.07;41.17;;;6.10;99.90;;;;;;5071326;28;20037;-70
2022/01/14 03:41:48;;;;;;;77.22;42.05;;;6.10;99.90;;;;;;5068086;28;20129;-70
2022/01/14 03:44:14;;;;;;;80.10;40.65;;;6.00;99.90;;;;;;5071391;28;20084;-70
2022/01/14 03:46:40;;;;;;;86.60;42.47;;;6.10;99.90;;;;;;5068068;28;20387;-70
2022/01/14 03:49:05;;;;;;;77.07;41.63;;;6.10;99.90;;;;;;5069348;28;20043;-70
2022/01/14 03:51:31;;;;;;;108.00;46.25;;;6.10;99.90;;;;;;5068923;28;20037;-70
2022/01/14 03:53:57;;;;;;;78.97;42.63;;;6.00;99.90;;;;;;5069969;28;20102;-70
2022/01/14 03:56:23;;;;;;;80.00;42.65;;;6.10;99.90;;;;;;5068760;28;20048;-70
2022/01/14 03:58:49;;;;;;;89.05;42.20;;;6.10;99.90;;;;;;5075011;28;20048;-70
2022/01/14 04:01:15;;;;;;;85.68;43.92;;;6.10;99.90;;;;;;5083011;28;20097;-70
2022/01/14 04:03:42;;;;;;;83.90;43.22;;;6.10;99.90;;;;;;5069747;28;20051;-69
2022/01/14 04:06:10;;;;;;;86.32;45.88;;;6.10;99.90;;;;;;5068902;28;20070;-70
2022/01/14 04:08:36;;;;;;;90.88;45.97;;;6.10;99.90;;;;;;5067020;28;20573;-70
2022/01/14 04:11:03;;;;;;;99.68;48.28;;;6.10;99.90;;;;;;5068897;28;20058;-70
2022/01/14 04:16:02;;;;;;;101.15;48.70;;;6.10;99.90;;;;;;5069285;28;20052;-70
2022/01/14 04:18:28;;;;;;;101.63;50.47;;;6.10;99.90;;;;;;5068280;28;20282;-70
2022/01/14 04:20:53;;;;;;;100.93;47.67;;;6.10;99.90;;;;;;5069248;28;20409;-70
2022/01/14 04:23:22;;;;;;;104.93;51.20;;;6.10;99.90;;;;;;5069078;28;20671;-70
2022/01/14 04:25:53;;;;;;;103.97;52.28;;;6.10;99.90;;;;;;5066502;28;20055;-70
2022/01/14 04:28:21;;;;;;;93.80;51.50;;;6.10;99.90;;;;;;5067964;28;20057;-70
2022/01/14 04:30:47;;;;;;;113.65;55.58;;;6.10;99.90;;;;;;5069557;28;20046;-70
2022/01/14 04:33:13;;;;;;;102.15;48.65;;;6.10;99.90;;;;;;5067214;28;20049;-70
2022/01/14 04:35:38;;;;;;;106.50;55.70;;;6.00;99.90;;;;;;5085617;28;20413;-70
2022/01/14 04:38:04;;;;;;;102.90;51.88;;;6.00;99.90;;;;;;5068590;28;20072;-70
2022/01/14 04:40:31;;;;;;;113.78;59.35;;;6.00;99.90;;;;;;5068688;28;20489;-70
2022/01/14 04:42:58;;;;;;;105.30;54.55;;;6.00;99.90;;;;;;5070014;28;20800;-70
2022/01/14 04:48:07;;;;;;;106.03;50.78;;;6.00;99.90;;;;;;5067881;28;20060;-70
2022/01/14 04:50:33;;;;;;;108.85;55.88;;;6.00;99.90;;;;;;5069612;28;20055;-70
2022/01/14 04:53:00;;;;;;;121.20;55.67;;;6.00;99.90;;;;;;5066825;28;20040;-70
2022/01/14 04:55:27;;;;;;;104.78;54.10;;;6.00;99.90;;;;;;5069924;28;20048;-70
2022/01/14 04:57:55;;;;;;;100.18;51.67;;;6.00;99.90;;;;;;5067259;28;20045;-70
2022/01/14 05:00:24;;;;;;;102.25;54.05;;;5.90;99.90;;;;;;5067309;28;20048;-70
2022/01/14 05:02:52;;;;;;;106.90;52.85;;;6.00;99.90;;;;;;5050715;28;20040;-70
2022/01/14 05:05:21;;;;;;;104.20;53.40;;;5.90;99.90;;;;;;5067248;28;20132;-70
2022/01/14 05:07:48;;;;;;;112.38;55.88;;;5.90;99.90;;;;;;5083408;28;20044;-70
2022/01/14 05:12:49;;;;;;;96.10;51.72;;;5.90;99.90;;;;;;5073717;28;20048;-70
2022/01/14 05:15:16;;;;;;;115.03;53.83;;;5.80;99.90;;;;;;5076859;28;20040;-70
2022/01/14 05:17:43;;;;;;;107.60;53.55;;;5.80;99.90;;;;;;5069083;28;20123;-70
2022/01/14 05:20:09;;;;;;;122.05;54.78;;;5.70;99.90;;;;;;5067811;28;20143;-70
2022/01/14 05:22:36;;;;;;;108.35;51.80;;;5.70;99.90;;;;;;5068825;28;20055;-70
2022/01/14 05:25:04;;;;;;;102.80;51.42;;;5.70;99.90;;;;;;5068130;28;20094;-70
2022/01/14 05:27:29;;;;;;;100.22;52.92;;;5.70;99.90;;;;;;5071573;28;20048;-70
2022/01/14 05:29:55;;;;;;;103.38;53.60;;;5.70;99.90;;;;;;5066938;28;20052;-70
2022/01/14 05:32:22;;;;;;;105.00;51.53;;;5.70;99.90;;;;;;5065809;28;20055;-70
2022/01/14 05:34:48;;;;;;;104.53;53.33;;;5.70;99.90;;;;;;5070038;28;20469;-70
2022/01/14 05:37:13;;;;;;;102.53;52.30;;;5.70;99.90;;;;;;5083882;28;20048;-70
2022/01/14 05:39:40;;;;;;;103.50;54.70;;;5.70;99.90;;;;;;5066959;28;20052;-70
2022/01/14 05:42:07;;;;;;;111.40;54.75;;;5.60;99.90;;;;;;5068454;28;20043;-70
2022/01/14 05:44:32;;;;;;;97.00;52.78;;;5.70;99.90;;;;;;5065539;28;20559;-69
2022/01/14 05:46:59;;;;;;;109.88;52.72;;;5.60;99.90;;;;;;5066697;28;20087;-70
2022/01/14 05:49:26;;;;;;;114.22;56.53;;;5.70;99.90;;;;;;5067784;28;20048;-70
2022/01/14 05:51:51;;;;;;;101.82;51.33;;;5.60;99.90;;;;;;5067534;28;20121;-69
2022/01/14 05:54:18;;;;;;;106.68;51.85;;;5.60;99.90;;;;;;5066766;28;20494;-69
2022/01/14 05:56:44;;;;;;;100.60;54.08;;;5.60;99.90;;;;;;5067738;28;20051;-70
2022/01/14 05:59:11;;;;;;;113.88;53.30;;;5.60;99.90;;;;;;5079232;28;20040;-69
2022/01/14 06:01:37;;;;;;;102.95;50.80;;;5.60;99.90;;;;;;5066105;28;20378;-70
2022/01/14 06:04:04;;;;;;;100.50;51.65;;;5.60;99.90;;;;;;5067784;28;20121;-70
2022/01/14 06:06:31;;;;;;;103.75;53.00;;;5.60;99.90;;;;;;5066264;28;20080;-69
2022/01/14 06:08:58;;;;;;;105.30;53.53;;;5.70;99.90;;;;;;5068831;28;20067;-70
2022/01/14 06:11:24;;;;;;;93.85;50.13;;;5.70;99.90;;;;;;5068623;28;20041;-70
2022/01/14 06:13:49;;;;;;;104.22;54.40;;;5.70;99.90;;;;;;5050207;28;20037;-70
2022/01/14 06:16:17;;;;;;;94.45;49.10;;;5.70;99.90;;;;;;5067358;28;20044;-70
2022/01/14 06:18:43;;;;;;;98.00;50.25;;;5.70;99.90;;;;;;5066435;28;20048;-70
2022/01/14 06:21:09;;;;;;;93.65;51.45;;;5.70;99.90;;;;;;5076676;28;20055;-69
2022/01/14 06:23:35;;;;;;;90.80;50.33;;;5.70;99.90;;;;;;5065083;28;20040;-69
2022/01/14 06:26:02;;;;;;;94.95;48.45;;;5.70;99.90;;;;;;5063529;28;20041;-69
2022/01/14 06:28:27;;;;;;;130.07;68.60;;;5.70;99.90;;;;;;5061256;28;20481;-70
2022/01/14 06:30:54;;;;;;;89.97;48.10;;;5.70;99.90;;;;;;5069026;28;20043;-69
2022/01/14 06:33:20;;;;;;;98.57;49.60;;;5.70;99.90;;;;;;5067989;28;20083;-70
2022/01/14 06:35:45;;;;;;;87.25;49.55;;;5.70;99.90;;;;;;5066202;28;20064;-70
2022/01/14 06:38:11;;;;;;;102.82;50.35;;;5.70;99.90;;;;;;5064771;28;20048;-70
2022/01/14 06:40:38;;;;;;;99.25;48.30;;;5.70;99.90;;;;;;5064441;28;20032;-70
2022/01/14 06:43:04;;;;;;;96.47;48.03;;;5.70;99.90;;;;;;5064207;28;20041;-70
2022/01/14 06:45:31;;;;;;;106.35;51.30;;;5.70;99.90;;;;;;5065627;28;20409;-70
2022/01/14 06:47:58;;;;;;;88.20;46.92;;;5.80;99.90;;;;;;5067126;28;20765;-69
2022/01/14 06:50:24;;;;;;;90.95;48.10;;;5.70;99.90;;;;;;5060919;28;20045;-69
2022/01/14 06:52:50;;;;;;;76.53;46.00;;;5.70;99.90;;;;;;5055015;28;20417;-69
2022/01/14 06:55:16;;;;;;;93.97;47.45;;;5.70;99.90;;;;;;5062514;28;20743;-69
2022/01/14 06:57:42;;;;;;;93.75;48.63;;;5.70;99.90;;;;;;5071037;28;20040;-69
2022/01/14 07:00:11;;;;;;;104.90;48.03;;;5.70;99.90;;;;;;5065901;28;20310;-69
2022/01/14 07:02:37;;;;;;;88.68;49.88;;;5.70;99.90;;;;;;5067408;28;20042;-70
2022/01/14 07:05:03;;;;;;;87.55;50.13;;;5.70;99.90;;;;;;5065521;28;20044;-70
2022/01/14 07:07:29;;;;;;;93.22;47.92;;;5.70;99.90;;;;;;5069175;28;20098;-70
2022/01/14 07:09:58;;;;;;;86.43;48.47;;;5.70;99.90;;;;;;5069612;28;20137;-69
2022/01/14 07:12:28;;;;;;;85.63;47.25;;;5.70;99.90;;;;;;5069228;28;20131;-70
2022/01/14 07:14:56;;;;;;;84.30;48.08;;;5.70;99.90;;;;;;5062202;28;20510;-70
2022/01/14 07:17:23;;;;;;;96.20;51.42;;;5.70;99.90;;;;;;5065518;28;20076;-70
2022/01/14 07:19:51;;;;;;;86.90;47.70;;;5.70;99.90;;;;;;5067435;28;20040;-70
2022/01/14 07:22:17;;;;;;;92.13;47.90;;;5.70;99.90;;;;;;5071357;28;20049;-70
2022/01/14 07:24:44;;;;;;;88.60;47.78;;;5.70;99.90;;;;;;5053743;28;20078;-70
2022/01/14 07:27:10;;;;;;;80.30;46.90;;;5.70;99.90;;;;;;5076796;28;20050;-70
2022/01/14 07:29:35;;;;;;;86.65;47.40;;;5.70;99.90;;;;;;5076046;28;20094;-70
2022/01/14 07:32:01;;;;;;;81.10;46.47;;;5.70;99.90;;;;;;5070891;28;20076;-69
2022/01/14 07:34:27;;;;;;;84.20;46.22;;;5.70;99.90;;;;;;5077047;28;20620;-70
2022/01/14 07:36:53;;;;;;;86.45;44.90;;;5.80;99.90;;;;;;5068945;28;20048;-70
2022/01/14 07:39:19;;;;;;;80.10;45.55;;;5.70;99.90;;;;;;5058719;28;20056;-69
2022/01/14 07:41:48;;;;;;;88.03;46.33;;;5.70;99.90;;;;;;5060449;28;20129;-70
2022/01/14 07:44:14;;;;;;;88.60;46.30;;;5.80;99.90;;;;;;5068500;28;20045;-69
2022/01/14 07:46:40;;;;;;;73.90;44.00;;;5.80;99.90;;;;;;5065158;28;20043;-69
2022/01/14 07:49:06;;;;;;;77.82;43.95;;;5.80;99.90;;;;;;5067109;28;20040;-70
2022/01/14 07:51:32;;;;;;;96.15;46.15;;;5.80;99.90;;;;;;5065011;28;20048;-70
2022/01/14 07:53:58;;;;;;;78.22;43.70;;;5.80;99.90;;;;;;5064636;28;20168;-70
2022/01/14 07:56:24;;;;;;;103.38;44.22;;;5.80;99.90;;;;;;5070217;28;20032;-70
2022/01/14 07:58:50;;;;;;;85.07;42.13;;;5.80;99.90;;;;;;5072648;28;20453;-69
2022/01/14 08:01:16;;;;;;;83.53;44.90;;;5.80;99.90;;;;;;5066815;28;20398;-70
2022/01/14 08:03:41;;;;;;;79.82;41.03;;;5.90;99.90;;;;;;5061876;28;20048;-69
2022/01/14 08:06:10;;;;;;;77.93;41.92;;;5.80;99.90;;;;;;5062777;28;20084;-70
2022/01/14 08:08:37;;;;;;;83.30;42.67;;;5.80;99.90;;;;;;5064369;28;20398;-69
2022/01/14 08:11:02;;;;;;;79.43;42.58;;;5.90;99.90;;;;;;5069353;28;20048;-69
2022/01/14 08:13:28;;;;;;;67.07;38.90;;;5.90;99.90;;;;;;5066341;28;20056;-69
2022/01/14 08:15:55;;;;;;;69.88;39.60;;;5.90;99.90;;;;;;5065295;28;20055;-70
2022/01/14 08:18:21;;;;;;;91.38;42.25;;;5.90;99.90;;;;;;5069086;28;20056;-69
2022/01/14 08:20:47;;;;;;;75.72;40.60;;;5.90;99.90;;;;;;5065080;28;20044;-69
2022/01/14 08:23:13;;;;;;;71.57;37.08;;;6.00;99.90;;;;;;5065728;28;20921;-69
2022/01/14 08:25:40;;;;;;;59.42;34.40;;;6.00;99.90;;;;;;5066803;28;20036;-70
2022/01/14 08:28:06;;;;;;;65.38;35.28;;;6.00;99.90;;;;;;5069129;28;20127;-69
2022/01/14 08:30:33;;;;;;;80.78;39.50;;;6.00;99.90;;;;;;5064111;28;20899;-70
2022/01/14 08:32:58;;;;;;;65.13;38.90;;;6.10;99.90;;;;;;5049445;28;20067;-70
2022/01/14 08:35:24;;;;;;;70.22;36.97;;;6.10;99.90;;;;;;5068512;28;20493;-69
2022/01/14 08:37:50;;;;;;;59.33;34.38;;;6.10;99.90;;;;;;5061217;28;20050;-69
2022/01/14 08:40:15;;;;;;;64.95;33.58;;;6.10;99.90;;;;;;5068439;28;20033;-69
2022/01/14 08:42:44;;;;;;;65.82;36.63;;;6.10;99.90;;;;;;5069068;28;20826;-69
2022/01/14 08:45:10;;;;;;;71.70;35.97;;;6.10;99.90;;;;;;5066535;28;20051;-69
2022/01/14 08:47:36;;;;;;;65.25;37.03;;;6.20;99.90;;;;;;5068999;28;20041;-69
2022/01/14 08:50:01;;;;;;;69.68;35.03;;;6.20;99.90;;;;;;5064409;28;20040;-69
2022/01/14 08:52:27;;;;;;;68.60;35.70;;;6.20;99.90;;;;;;5067314;28;20417;-69
2022/01/14 08:54:53;;;;;;;74.38;35.38;;;6.30;99.90;;;;;;5065291;28;20127;-69
2022/01/14 08:57:19;;;;;;;63.38;33.85;;;6.30;99.90;;;;;;5062900;28;20063;-69
2022/01/14 08:59:44;;;;;;;72.13;35.67;;;6.30;99.90;;;;;;5064941;28;20123;-69
2022/01/14 09:02:10;;;;;;;67.90;36.47;;;6.30;99.90;;;;;;5069572;28;20139;-69
2022/01/14 09:04:36;;;;;;;68.78;35.20;;;6.40;99.90;;;;;;5066034;28;20041;-69
2022/01/14 09:07:02;;;;;;;54.38;31.75;;;6.40;99.90;;;;;;5068441;28;20071;-69
2022/01/14 09:09:27;;;;;;;49.90;31.20;;;6.40;99.90;;;;;;5065099;28;20379;-69
2022/01/14 09:11:55;;;;;;;60.80;31.48;;;6.50;99.90;;;;;;5068502;28;20058;-69
2022/01/14 09:14:22;;;;;;;58.78;32.20;;;6.50;99.90;;;;;;5073351;28;20044;-69
2022/01/14 09:16:48;;;;;;;52.75;31.42;;;6.50;99.90;;;;;;5068233;28;20048;-69
2022/01/14 09:19:14;;;;;;;62.10;30.95;;;6.50;99.90;;;;;;5067991;28;20036;-70
2022/01/14 09:21:42;;;;;;;56.70;32.25;;;6.60;99.90;;;;;;5067027;28;20044;-69
2022/01/14 09:24:08;;;;;;;50.67;29.38;;;6.70;99.90;;;;;;5066359;28;20116;-70
2022/01/14 09:26:36;;;;;;;64.97;30.33;;;6.70;99.90;;;;;;5077557;28;20569;-70
2022/01/14 09:29:05;;;;;;;67.05;32.75;;;6.80;99.90;;;;;;5062514;28;20041;-70
2022/01/14 09:31:31;;;;;;;44.28;28.40;;;6.70;99.90;;;;;;5063060;28;20064;-69
2022/01/14 09:33:57;;;;;;;49.80;27.00;;;6.80;99.90;;;;;;5060223;28;20051;-69
2022/01/14 09:36:23;;;;;;;63.50;27.35;;;6.80;99.90;;;;;;5066569;28;20053;-70
2022/01/14 09:38:49;;;;;;;52.10;28.27;;;6.80;99.90;;;;;;5060334;28;20131;-69
2022/01/14 09:41:20;;;;;;;57.03;26.90;;;6.90;99.90;;;;;;5067001;28;20512;-69
2022/01/14 09:43:46;;;;;;;48.05;25.75;;;6.90;99.90;;;;;;5064616;28;20044;-69
2022/01/14 09:46:12;;;;;;;53.97;25.25;;;7.00;99.90;;;;;;5063281;28;20788;-70
2022/01/14 09:48:39;;;;;;;45.40;23.88;;;7.00;99.90;;;;;;5064415;28;20049;-69
2022/01/14 09:51:05;;;;;;;40.25;24.33;;;7.10;99.90;;;;;;5049139;28;20049;-70
2022/01/14 09:53:32;;;;;;;54.97;25.75;;;7.10;99.90;;;;;;5064518;28;20072;-70
2022/01/14 09:55:59;;;;;;;38.22;22.20;;;7.20;99.90;;;;;;5058714;28;20119;-69
2022/01/14 09:58:26;;;;;;;35.10;22.70;;;7.20;99.90;;;;;;5061220;28;20062;-69
2022/01/14 10:01:10;;;;;;;46.50;23.58;;;7.30;99.90;;;;;;5067355;28;20070;-68
2022/01/14 10:03:49;;;;;;;45.83;21.23;;;7.30;99.90;;;;;;5066160;28;20136;-70
2022/01/14 10:06:37;;;;;;;45.10;21.60;;;7.40;99.90;;;;;;5067461;28;20079;-69
2022/01/14 10:09:04;;;;;;;48.53;21.55;;;7.40;99.90;;;;;;5064704;28;20071;-69
2022/01/14 10:11:30;;;;;;;42.97;19.75;;;7.40;99.90;;;;;;5065780;28;20052;-69
2022/01/14 10:14:07;;;;;;;36.97;19.92;;;7.40;99.90;;;;;;5064172;28;20044;-69
2022/01/14 10:16:33;;;;;;;41.08;19.58;;;7.50;99.90;;;;;;5059469;28;20047;-69
2022/01/14 10:18:59;;;;;;;28.48;17.95;;;7.50;99.90;;;;;;5065117;28;20412;-69
2022/01/14 10:21:35;;;;;;;37.15;18.02;;;7.50;99.90;;;;;;5064904;28;20860;-69
2022/01/14 10:24:00;;;;;;;36.45;17.52;;;7.60;99.90;;;;;;5067512;28;20044;-69
2022/01/14 10:26:27;;;;;;;43.80;18.60;;;7.60;99.90;;;;;;5070265;28;20071;-69
2022/01/14 10:29:06;;;;;;;39.13;17.40;;;7.60;99.90;;;;;;5062501;28;20088;-69
2022/01/14 10:31:36;;;;;;;38.72;18.15;;;7.70;99.90;;;;;;5061250;28;20051;-69
2022/01/14 10:34:16;;;;;;;32.22;15.13;;;7.70;99.90;;;;;;5057283;28;20047;-69
2022/01/14 10:36:46;;;;;;;30.55;14.63;;;7.70;99.90;;;;;;5067073;28;20052;-69
2022/01/14 10:39:27;;;;;;;34.75;15.30;;;7.70;99.90;;;;;;5064951;28;20044;-70
2022/01/14 10:41:55;;;;;;;33.65;15.70;;;7.80;99.90;;;;;;5064795;28;20061;-69
2022/01/14 10:44:29;;;;;;;26.43;14.10;;;7.80;99.90;;;;;;5064829;28;20056;-69
2022/01/14 10:47:11;;;;;;;27.38;13.82;;;7.80;99.90;;;;;;5044197;28;20291;-69
2022/01/14 10:49:40;;;;;;;41.15;15.98;;;7.80;99.90;;;;;;5066632;28;20044;-69
2022/01/14 10:52:16;;;;;;;30.27;13.95;;;7.80;99.90;;;;;;5062525;28;20102;-69
2022/01/14 10:54:51;;;;;;;33.90;14.95;;;7.80;99.90;;;;;;5063945;28;20044;-70
2022/01/14 10:57:19;;;;;;;22.65;12.55;;;7.80;99.90;;;;;;5057167;28;20063;-69
2022/01/14 10:59:47;;;;;;;32.80;15.85;;;7.70;99.90;;;;;;5067377;28;20044;-69
2022/01/14 11:02:45;;;;;;;36.58;13.80;;;7.70;99.90;;;;;;5079320;28;20037;-69
2022/01/14 11:05:16;;;;;;;35.40;14.88;;;7.70;99.90;;;;;;5061502;28;20053;-69
2022/01/14 11:07:43;;;;;;;34.35;14.05;;;7.70;99.90;;;;;;5064766;28;20151;-69
2022/01/14 11:10:24;;;;;;;38.35;14.15;;;7.70;99.90;;;;;;5066931;28;20063;-69
2022/01/14 11:12:53;;;;;;;27.30;12.88;;;7.70;99.90;;;;;;5067365;28;20067;-69
2022/01/14 11:15:21;;;;;;;38.78;13.43;;;7.70;99.90;;;;;;5061475;28;20045;-69
2022/01/14 11:17:51;;;;;;;31.00;14.15;;;7.70;99.90;;;;;;5065431;28;20048;-69
2022/01/14 11:20:24;;;;;;;31.45;13.80;;;7.70;99.90;;;;;;5063334;28;20048;-69
2022/01/14 11:25:44;;;;;;;19.48;12.07;;;7.70;99.90;;;;;;5061102;28;20049;-69
2022/01/14 11:28:13;;;;;;;29.27;13.93;;;7.60;99.90;;;;;;5066183;28;20080;-69
2022/01/14 11:30:40;;;;;;;27.13;12.60;;;7.60;99.90;;;;;;5068500;28;20045;-70
2022/01/14 11:33:07;;;;;;;24.67;12.43;;;7.60;99.90;;;;;;5052096;28;20052;-69
2022/01/14 11:35:37;;;;;;;38.17;14.02;;;7.70;99.90;;;;;;5068474;28;20526;-69
2022/01/14 11:38:23;;;;;;;32.13;13.10;;;7.70;99.90;;;;;;5069309;28;20055;-69
2022/01/14 11:40:50;;;;;;;25.55;12.40;;;7.70;99.90;;;;;;5066997;28;20049;-69
2022/01/14 11:43:42;;;;;;;24.25;12.93;;;7.70;99.90;;;;;;5065106;28;20053;-69
2022/01/14 11:46:11;;;;;;;28.33;12.93;;;7.70;99.90;;;;;;5061688;28;20045;-69
2022/01/14 11:48:53;;;;;;;32.05;12.88;;;7.70;99.90;;;;;;5067736;28;20055;-69
2022/01/14 11:51:18;;;;;;;38.38;12.85;;;7.80;99.90;;;;;;5067566;28;20048;-69
2022/01/14 11:54:03;;;;;;;22.92;12.60;;;7.70;99.90;;;;;;5058515;28;20452;-69
2022/01/14 11:56:31;;;;;;;27.63;13.27;;;7.70;99.90;;;;;;5065255;28;20099;-69
2022/01/14 11:59:22;;;;;;;33.67;13.63;;;7.70;99.90;;;;;;5066746;28;20048;-69
2022/01/14 12:01:53;;;;;;;32.53;14.52;;;7.80;99.90;;;;;;5066488;28;20413;-69
2022/01/14 12:04:19;;;;;;;30.20;12.40;;;7.80;99.90;;;;;;5070165;28;20052;-69
2022/01/14 12:07:05;;;;;;;51.83;15.93;;;7.80;99.90;;;;;;5062163;28;20055;-69
2022/01/14 12:09:50;;;;;;;27.17;12.70;;;7.90;99.90;;;;;;5070206;28;20063;-70
2022/01/14 12:12:24;;;;;;;27.02;13.13;;;7.80;99.90;;;;;;5069483;28;20045;-69
2022/01/14 12:15:02;;;;;;;26.02;12.23;;;7.80;99.90;;;;;;5068209;28;20040;-69
2022/01/14 12:17:46;;;;;;;;;;;7.90;99.90;;;;;;5062196;28;20115;-69
2022/01/14 12:20:14;;;;;;;33.72;11.90;;;7.80;99.90;;;;;;5064190;28;19931;-69
2022/01/14 12:22:41;;;;;;;32.60;12.63;;;7.80;99.90;;;;;;5065795;28;20524;-70
2022/01/14 12:25:08;;;;;;;37.70;13.73;;;7.80;99.90;;;;;;5064310;28;20703;-69
2022/01/14 12:27:44;;;;;;;26.50;11.02;;;7.80;99.90;;;;;;5066105;28;20048;-69
2022/01/14 12:30:20;;;;;;;19.58;11.40;;;7.90;99.90;;;;;;5061711;28;20477;-70
2022/01/14 12:32:53;;;;;;;24.92;12.27;;;7.90;99.90;;;;;;5067088;28;20677;-69
2022/01/14 12:35:25;;;;;;;26.02;12.50;;;7.90;99.90;;;;;;5067494;28;20130;-69
2022/01/14 12:37:56;;;;;;;29.27;11.52;;;7.90;99.90;;;;;;5069834;28;20048;-69
2022/01/14 12:40:31;;;;;;;30.85;12.40;;;7.90;99.90;;;;;;5064915;28;20053;-69
2022/01/14 12:43:00;;;;;;;30.20;12.25;;;7.90;99.90;;;;;;5060773;28;20032;-70
2022/01/14 12:45:36;;;;;;;25.58;12.20;;;7.90;99.90;;;;;;5067276;28;20041;-70
2022/01/14 12:51:06;;;;;;;24.48;10.57;;;7.90;99.90;;;;;;5068305;28;20545;-70
2022/01/14 12:53:33;;;;;;;23.23;10.15;;;7.80;99.90;;;;;;5068385;28;20048;-69
2022/01/14 12:56:12;;;;;;;22.00;10.85;;;7.80;99.90;;;;;;5068112;28;20241;-70
2022/01/14 12:59:01;;;;;;;19.73;10.32;;;7.80;99.90;;;;;;5062919;28;20420;-69
2022/01/14 13:01:50;;;;;;;24.10;9.48;;;7.80;99.90;;;;;;5058896;28;20051;-70
2022/01/14 13:04:17;;;;;;;17.15;9.18;;;7.80;99.90;;;;;;5056423;28;20040;-70
2022/01/14 13:06:46;;;;;;;20.67;9.50;;;7.80;99.90;;;;;;5067889;28;20060;-70
2022/01/14 13:09:17;;;;;;;20.58;8.40;;;7.80;99.90;;;;;;5067273;28;20531;-69
2022/01/14 13:11:46;;;;;;;19.48;9.68;;;7.80;99.90;;;;;;5066053;28;20040;-69
2022/01/14 13:14:16;;;;;;;23.42;9.63;;;7.80;99.90;;;;;;5067550;28;20494;-70